This is the latest recevied weather packets stored in our database for station/object EA1ZE. If no packets are shown the sender has not sent any weather packets the latest 10 day(s).
| Time | Temp. | Humidity | Pressure | Rain* | Wind** | Luminosity | Snow |
|---|---|---|---|---|---|---|---|
| 1787930157 | 21.67° C | 55% | 1020.3 hPa | 0 mm | - | - | - |
| 1787929265 | 21.67° C | 55% | 1020.3 hPa | 0 mm | - | - | - |
| 1787928354 | 21.67° C | 56% | 1020.3 hPa | 0 mm | - | - | - |
| 1787927456 | 21.11° C | 57% | 1020.5 hPa | 0 mm | - | - | - |
| 1787926557 | 20.56° C | 58% | 1020.6 hPa | 0 mm | - | - | - |
| 1787925653 | 20.56° C | 58% | 1020.8 hPa | 0 mm | - | - | - |
| 1787924766 | 20.56° C | 58% | 1020.8 hPa | 0 mm | - | - | - |
| 1787923862 | 21.11° C | 57% | 1020.9 hPa | 0 mm | - | - | - |
| 1787922952 | 21.11° C | 56% | 1020.9 hPa | 0 mm | - | - | - |
| 1787922051 | 21.67° C | 56% | 1020.8 hPa | 0 mm | - | - | - |
| 1787921156 | 21.11° C | 56% | 1020.9 hPa | 0 mm | - | - | - |
| 1787920246 | 20.56° C | 58% | 1020.7 hPa | 0 mm | - | - | - |
| 1787919354 | 20° C | 59% | 1020.7 hPa | 0 mm | - | - | - |
| 1787918443 | 18.89° C | 61% | 1020.9 hPa | 0 mm | - | - | - |
| 1787917538 | 18.33° C | 62% | 1021 hPa | 0 mm | - | - | - |
| 1787916637 | 18.33° C | 62% | 1021.2 hPa | 0 mm | - | - | - |
| 1787915742 | 18.89° C | 59% | 1021.3 hPa | 0 mm | - | - | - |
| 1787914836 | 18.33° C | 62% | 1021.3 hPa | 0 mm | - | - | - |
| 1787913931 | 17.78° C | 62% | 1021.3 hPa | 0 mm | - | - | - |
| 1787913030 | 17.78° C | 63% | 1021.3 hPa | 0 mm | - | - | - |
| 1787912130 | 17.22° C | 65% | 1021.3 hPa | 0 mm | - | - | - |
| 1787911225 | 16.67° C | 67% | 1021.4 hPa | 0 mm | - | - | - |
| 1787910320 | 16.11° C | 71% | 1021.3 hPa | 0 mm | - | - | - |
| 1787909419 | 16.11° C | 71% | 1021.3 hPa | 0 mm | - | - | - |
| 1787908517 | 15.56° C | 75% | 1021.2 hPa | 0 mm | - | - | - |
* Rain latest hour (hover to see other rain measurements)
** Current wind speed in m/s (hover to see current wind gust speed)